Terminal Aerodrome Forecast
Issued by NWS

Home | Current Version | Previous Version | Graphics & Text | Print | Product List | Glossary On
Versions: 1 2 3 4 5 6 7 8 9 10 11 12 13 14 15 16 17 18 19 20 21 22 23 24
000
FTUS45 KGGW 281700
TAFGDV
TAF
KGDV 281728Z 2818/2918 27028G38KT 6SM -SHRA SCT018 BKN028 OVC050
      TEMPO 2818/2821 27038G48KT 4SM RA BKN023 OVC030
     FM290000 29030G42KT P6SM BKN050
     FM290300 29022G30KT P6SM BKN060 BKN140
     FM290600 28016KT P6SM BKN100
     FM291200 26012KT P6SM SCT250
      AMD LTD TO CLD VIS AND WIND=

USA.gov is the U.S. government's official web portal to all federal, state and local government web resources and services.